sensor_id;sensor_type;location;lat;lon;timestamp;pressure;altitude;pressure_sealevel;temperature;humidity
46638;BME280;32365;46.938;7.390;2023-04-20T07:47:36;94690.59;;;4.10;88.83
46638;BME280;32365;46.938;7.390;2023-04-20T07:50:03;94694.00;;;4.04;87.87
46638;BME280;32365;46.938;7.390;2023-04-20T07:52:30;94689.94;;;3.83;89.53
46638;BME280;32365;46.938;7.390;2023-04-20T07:54:57;94688.91;;;3.91;89.28
46638;BME280;32365;46.938;7.390;2023-04-20T07:57:24;94686.47;;;4.09;88.46
46638;BME280;32365;46.938;7.390;2023-04-20T07:59:51;94687.09;;;4.05;88.22
46638;BME280;32365;46.938;7.390;2023-04-20T08:02:17;94691.78;;;4.14;87.68
46638;BME280;32365;46.938;7.390;2023-04-20T08:04:45;94687.16;;;4.37;86.58
46638;BME280;32365;46.938;7.390;2023-04-20T08:07:12;94687.97;;;4.30;86.63
46638;BME280;32365;46.938;7.390;2023-04-20T08:09:39;94685.81;;;4.27;87.22
46638;BME280;32365;46.938;7.390;2023-04-20T08:12:06;94689.72;;;4.37;85.36
46638;BME280;32365;46.938;7.390;2023-04-20T08:14:32;94686.28;;;4.11;86.85
46638;BME280;32365;46.938;7.390;2023-04-20T08:16:59;94688.47;;;4.07;87.32
46638;BME280;32365;46.938;7.390;2023-04-20T08:19:25;94680.06;;;4.39;86.63
46638;BME280;32365;46.938;7.390;2023-04-20T08:21:53;94676.59;;;4.20;86.98
46638;BME280;32365;46.938;7.390;2023-04-20T08:24:20;94677.59;;;4.51;86.27
46638;BME280;32365;46.938;7.390;2023-04-20T08:26:47;94677.81;;;4.49;84.34
46638;BME280;32365;46.938;7.390;2023-04-20T08:29:13;94679.06;;;4.33;86.16
46638;BME280;32365;46.938;7.390;2023-04-20T08:31:40;94679.66;;;4.35;85.06
46638;BME280;32365;46.938;7.390;2023-04-20T08:34:06;94680.53;;;4.22;86.58
46638;BME280;32365;46.938;7.390;2023-04-20T08:36:33;94682.66;;;4.32;86.28
46638;BME280;32365;46.938;7.390;2023-04-20T08:39:07;94685.63;;;4.29;85.83
46638;BME280;32365;46.938;7.390;2023-04-20T08:41:34;94676.91;;;4.37;86.17
46638;BME280;32365;46.938;7.390;2023-04-20T08:44:00;94680.31;;;4.62;84.83
46638;BME280;32365;46.938;7.390;2023-04-20T08:46:27;94682.19;;;4.03;86.07
46638;BME280;32365;46.938;7.390;2023-04-20T08:48:54;94677.69;;;4.37;85.30
46638;BME280;32365;46.938;7.390;2023-04-20T08:51:21;94675.72;;;4.32;85.31
46638;BME280;32365;46.938;7.390;2023-04-20T08:53:48;94681.34;;;4.55;85.49
46638;BME280;32365;46.938;7.390;2023-04-20T08:56:16;94690.97;;;4.59;84.23
46638;BME280;32365;46.938;7.390;2023-04-20T08:58:43;94692.91;;;4.32;84.93
46638;BME280;32365;46.938;7.390;2023-04-20T09:01:09;94682.66;;;4.32;85.03
46638;BME280;32365;46.938;7.390;2023-04-20T09:03:37;94683.81;;;4.29;85.91
46638;BME280;32365;46.938;7.390;2023-04-20T09:06:05;94685.69;;;4.47;85.21
46638;BME280;32365;46.938;7.390;2023-04-20T09:08:36;94693.53;;;4.21;85.61
46638;BME280;32365;46.938;7.390;2023-04-20T09:11:03;94692.13;;;4.25;87.43
46638;BME280;32365;46.938;7.390;2023-04-20T09:13:31;94698.41;;;4.36;87.10
46638;BME280;32365;46.938;7.390;2023-04-20T09:16:08;94690.06;;;4.47;86.61
46638;BME280;32365;46.938;7.390;2023-04-20T09:18:35;94691.38;;;4.56;84.25
46638;BME280;32365;46.938;7.390;2023-04-20T09:21:06;94703.91;;;4.71;84.15
46638;BME280;32365;46.938;7.390;2023-04-20T09:23:33;94713.84;;;4.93;81.12
46638;BME280;32365;46.938;7.390;2023-04-20T09:25:59;94714.53;;;4.36;84.59
46638;BME280;32365;46.938;7.390;2023-04-20T09:28:35;94710.34;;;4.03;85.78
46638;BME280;32365;46.938;7.390;2023-04-20T09:31:03;94710.63;;;4.66;84.56
46638;BME280;32365;46.938;7.390;2023-04-20T09:33:30;94720.22;;;4.77;82.88
46638;BME280;32365;46.938;7.390;2023-04-20T09:36:02;94720.16;;;4.90;82.57
46638;BME280;32365;46.938;7.390;2023-04-20T09:38:29;94725.19;;;4.78;82.84
46638;BME280;32365;46.938;7.390;2023-04-20T09:40:57;94723.94;;;4.56;83.62
46638;BME280;32365;46.938;7.390;2023-04-20T09:43:27;94722.31;;;4.61;83.86
46638;BME280;32365;46.938;7.390;2023-04-20T09:45:55;94717.78;;;4.18;85.37
46638;BME280;32365;46.938;7.390;2023-04-20T09:48:21;94719.03;;;4.47;85.59
46638;BME280;32365;46.938;7.390;2023-04-20T09:50:48;94714.94;;;4.33;84.96
46638;BME280;32365;46.938;7.390;2023-04-20T09:53:15;94700.81;;;4.17;86.43
46638;BME280;32365;46.938;7.390;2023-04-20T09:55:44;94716.91;;;4.38;85.85
46638;BME280;32365;46.938;7.390;2023-04-20T09:58:11;94705.44;;;4.47;85.12
46638;BME280;32365;46.938;7.390;2023-04-20T10:00:38;94717.88;;;4.75;84.59
46638;BME280;32365;46.938;7.390;2023-04-20T10:03:06;94717.03;;;4.82;83.30
46638;BME280;32365;46.938;7.390;2023-04-20T10:05:35;94703.63;;;4.47;85.31
46638;BME280;32365;46.938;7.390;2023-04-20T10:08:03;94694.78;;;4.50;85.96
46638;BME280;32365;46.938;7.390;2023-04-20T10:10:42;94695.59;;;4.44;86.54
46638;BME280;32365;46.938;7.390;2023-04-20T10:13:08;94698.28;;;4.56;85.86
46638;BME280;32365;46.938;7.390;2023-04-20T10:15:35;94695.50;;;4.89;84.31
46638;BME280;32365;46.938;7.390;2023-04-20T10:18:17;94690.38;;;5.15;82.97
46638;BME280;32365;46.938;7.390;2023-04-20T10:20:43;94701.00;;;4.61;84.99
46638;BME280;32365;46.938;7.390;2023-04-20T10:23:10;94689.19;;;4.60;85.42
46638;BME280;32365;46.938;7.390;2023-04-20T10:25:39;94696.78;;;4.73;85.77
46638;BME280;32365;46.938;7.390;2023-04-20T10:28:05;94696.25;;;4.65;85.97
46638;BME280;32365;46.938;7.390;2023-04-20T10:30:35;94705.38;;;4.86;84.78
46638;BME280;32365;46.938;7.390;2023-04-20T10:33:04;94698.16;;;4.76;86.78
46638;BME280;32365;46.938;7.390;2023-04-20T10:35:45;94689.31;;;4.97;85.57
46638;BME280;32365;46.938;7.390;2023-04-20T10:38:12;94693.81;;;5.02;85.47
46638;BME280;32365;46.938;7.390;2023-04-20T10:40:39;94689.19;;;5.17;85.09
46638;BME280;32365;46.938;7.390;2023-04-20T10:43:16;94690.84;;;5.05;83.10
46638;BME280;32365;46.938;7.390;2023-04-20T10:45:43;94696.28;;;5.15;85.33
46638;BME280;32365;46.938;7.390;2023-04-20T10:48:10;94690.56;;;5.13;85.63
46638;BME280;32365;46.938;7.390;2023-04-20T10:50:37;94697.44;;;4.94;85.15
46638;BME280;32365;46.938;7.390;2023-04-20T10:53:16;94686.63;;;4.60;88.16
46638;BME280;32365;46.938;7.390;2023-04-20T10:55:43;94681.50;;;4.60;88.73
46638;BME280;32365;46.938;7.390;2023-04-20T10:58:19;94691.16;;;4.90;89.09
46638;BME280;32365;46.938;7.390;2023-04-20T11:00:55;94697.28;;;4.89;89.65
46638;BME280;32365;46.938;7.390;2023-04-20T11:03:22;94697.25;;;4.63;89.72
46638;BME280;32365;46.938;7.390;2023-04-20T11:05:49;94689.47;;;4.77;89.92
46638;BME280;32365;46.938;7.390;2023-04-20T11:08:17;94696.34;;;4.83;89.66
46638;BME280;32365;46.938;7.390;2023-04-20T11:10:43;94698.66;;;4.59;90.22
46638;BME280;32365;46.938;7.390;2023-04-20T11:13:18;94693.03;;;4.44;90.47
46638;BME280;32365;46.938;7.390;2023-04-20T11:15:45;94694.97;;;4.49;91.99
46638;BME280;32365;46.938;7.390;2023-04-20T11:18:11;94691.31;;;4.31;93.56
46638;BME280;32365;46.938;7.390;2023-04-20T11:20:49;94683.91;;;4.09;94.89
46638;BME280;32365;46.938;7.390;2023-04-20T11:23:18;94681.09;;;4.24;95.08
46638;BME280;32365;46.938;7.390;2023-04-20T11:25:48;94687.06;;;4.11;94.96
46638;BME280;32365;46.938;7.390;2023-04-20T11:28:16;94690.19;;;4.20;94.45
46638;BME280;32365;46.938;7.390;2023-04-20T11:30:42;94689.44;;;4.13;94.83
46638;BME280;32365;46.938;7.390;2023-04-20T11:33:09;94683.88;;;4.16;94.22
46638;BME280;32365;46.938;7.390;2023-04-20T11:35:36;94674.94;;;4.39;95.13
46638;BME280;32365;46.938;7.390;2023-04-20T11:38:03;94676.22;;;4.55;94.88
46638;BME280;32365;46.938;7.390;2023-04-20T11:40:31;94679.25;;;4.38;93.86
46638;BME280;32365;46.938;7.390;2023-04-20T11:42:57;94686.59;;;4.28;94.12
46638;BME280;32365;46.938;7.390;2023-04-20T11:45:24;94677.50;;;4.39;94.22
46638;BME280;32365;46.938;7.390;2023-04-20T11:47:52;94678.59;;;4.50;93.93
46638;BME280;32365;46.938;7.390;2023-04-20T11:50:19;94671.56;;;4.38;93.63
46638;BME280;32365;46.938;7.390;2023-04-20T11:52:46;94679.06;;;4.72;93.43
46638;BME280;32365;46.938;7.390;2023-04-20T11:55:12;94679.47;;;4.69;93.95
46638;BME280;32365;46.938;7.390;2023-04-20T11:57:40;94678.34;;;4.90;92.64
46638;BME280;32365;46.938;7.390;2023-04-20T12:00:08;94669.22;;;4.69;92.75
46638;BME280;32365;46.938;7.390;2023-04-20T12:02:34;94671.72;;;4.75;94.08
46638;BME280;32365;46.938;7.390;2023-04-20T12:05:01;94675.06;;;4.76;94.72
46638;BME280;32365;46.938;7.390;2023-04-20T12:07:28;94670.44;;;4.91;93.68
46638;BME280;32365;46.938;7.390;2023-04-20T12:09:54;94674.78;;;4.59;93.12
46638;BME280;32365;46.938;7.390;2023-04-20T12:12:20;94670.28;;;4.54;94.82
46638;BME280;32365;46.938;7.390;2023-04-20T12:14:49;94668.63;;;4.35;94.49
46638;BME280;32365;46.938;7.390;2023-04-20T12:17:15;94666.53;;;4.57;93.80
46638;BME280;32365;46.938;7.390;2023-04-20T12:19:42;94663.31;;;4.68;93.70
46638;BME280;32365;46.938;7.390;2023-04-20T12:22:08;94672.34;;;4.71;94.20
46638;BME280;32365;46.938;7.390;2023-04-20T12:24:34;94682.03;;;4.69;94.51
46638;BME280;32365;46.938;7.390;2023-04-20T12:27:01;94678.81;;;4.48;93.73
46638;BME280;32365;46.938;7.390;2023-04-20T12:29:28;94669.81;;;4.39;94.75
46638;BME280;32365;46.938;7.390;2023-04-20T12:31:56;94672.88;;;4.47;93.44
46638;BME280;32365;46.938;7.390;2023-04-20T12:34:23;94670.41;;;4.66;95.16
46638;BME280;32365;46.938;7.390;2023-04-20T12:36:49;94663.91;;;4.96;93.41
46638;BME280;32365;46.938;7.390;2023-04-20T12:39:16;94672.53;;;5.01;93.81
46638;BME280;32365;46.938;7.390;2023-04-20T12:41:42;94669.38;;;5.24;91.82
46638;BME280;32365;46.938;7.390;2023-04-20T12:44:08;94672.16;;;5.42;90.49
46638;BME280;32365;46.938;7.390;2023-04-20T12:46:37;94669.06;;;5.14;91.98
46638;BME280;32365;46.938;7.390;2023-04-20T12:49:05;94667.72;;;5.30;90.51
46638;BME280;32365;46.938;7.390;2023-04-20T12:51:31;94673.97;;;5.41;91.68
46638;BME280;32365;46.938;7.390;2023-04-20T12:53:58;94672.63;;;5.38;90.93
46638;BME280;32365;46.938;7.390;2023-04-20T12:56:24;94680.31;;;5.57;90.40
46638;BME280;32365;46.938;7.390;2023-04-20T12:58:51;94686.13;;;5.71;87.70
46638;BME280;32365;46.938;7.390;2023-04-20T13:01:17;94694.25;;;5.68;87.44
46638;BME280;32365;46.938;7.390;2023-04-20T13:03:43;94692.25;;;5.70;86.12
46638;BME280;32365;46.938;7.390;2023-04-20T13:06:13;94687.97;;;5.82;86.22
46638;BME280;32365;46.938;7.390;2023-04-20T13:08:39;94680.47;;;5.81;85.81
46638;BME280;32365;46.938;7.390;2023-04-20T13:11:06;94681.56;;;5.92;85.31
46638;BME280;32365;46.938;7.390;2023-04-20T13:13:36;94692.25;;;5.89;85.22
46638;BME280;32365;46.938;7.390;2023-04-20T13:16:02;94689.47;;;5.53;86.24
46638;BME280;32365;46.938;7.390;2023-04-20T13:18:29;94686.50;;;5.49;87.80
46638;BME280;32365;46.938;7.390;2023-04-20T13:20:56;94692.97;;;5.77;85.38
46638;BME280;32365;46.938;7.390;2023-04-20T13:23:23;94703.78;;;5.61;87.10
46638;BME280;32365;46.938;7.390;2023-04-20T13:25:50;94697.00;;;5.66;86.25
46638;BME280;32365;46.938;7.390;2023-04-20T13:28:17;94700.88;;;5.94;86.24
46638;BME280;32365;46.938;7.390;2023-04-20T13:30:43;94704.16;;;5.83;83.75
46638;BME280;32365;46.938;7.390;2023-04-20T13:33:10;94701.09;;;5.93;84.12
46638;BME280;32365;46.938;7.390;2023-04-20T13:35:36;94707.66;;;5.89;84.36
46638;BME280;32365;46.938;7.390;2023-04-20T13:38:03;94706.72;;;5.83;85.46
46638;BME280;32365;46.938;7.390;2023-04-20T13:40:31;94707.91;;;5.43;85.19
46638;BME280;32365;46.938;7.390;2023-04-20T13:42:58;94709.66;;;5.68;83.63
46638;BME280;32365;46.938;7.390;2023-04-20T13:45:24;94706.97;;;5.81;84.32
46638;BME280;32365;46.938;7.390;2023-04-20T13:47:52;94722.00;;;5.78;84.02
46638;BME280;32365;46.938;7.390;2023-04-20T13:50:18;94705.50;;;5.85;84.52
46638;BME280;32365;46.938;7.390;2023-04-20T13:52:45;94714.44;;;5.83;83.80
46638;BME280;32365;46.938;7.390;2023-04-20T13:55:11;94713.44;;;5.84;85.10
46638;BME280;32365;46.938;7.390;2023-04-20T13:57:39;94716.06;;;5.77;84.68
46638;BME280;32365;46.938;7.390;2023-04-20T14:00:07;94715.50;;;5.75;83.50
46638;BME280;32365;46.938;7.390;2023-04-20T14:02:34;94723.44;;;5.48;83.96
46638;BME280;32365;46.938;7.390;2023-04-20T14:05:00;94732.00;;;5.42;88.09
46638;BME280;32365;46.938;7.390;2023-04-20T14:07:28;94727.06;;;5.66;87.59
46638;BME280;32365;46.938;7.390;2023-04-20T14:09:54;94728.56;;;5.74;86.60
46638;BME280;32365;46.938;7.390;2023-04-20T14:12:24;94729.22;;;5.88;84.38
46638;BME280;32365;46.938;7.390;2023-04-20T14:14:52;94731.44;;;5.84;84.46
46638;BME280;32365;46.938;7.390;2023-04-20T14:17:19;94727.41;;;5.69;85.46
46638;BME280;32365;46.938;7.390;2023-04-20T14:19:45;94723.06;;;5.89;85.67
46638;BME280;32365;46.938;7.390;2023-04-20T14:22:13;94723.22;;;5.75;83.79
46638;BME280;32365;46.938;7.390;2023-04-20T14:24:40;94725.75;;;5.57;87.13
46638;BME280;32365;46.938;7.390;2023-04-20T14:27:06;94733.13;;;5.72;86.69
46638;BME280;32365;46.938;7.390;2023-04-20T14:29:33;94730.50;;;5.97;85.60
46638;BME280;32365;46.938;7.390;2023-04-20T14:32:01;94733.13;;;5.72;84.06
46638;BME280;32365;46.938;7.390;2023-04-20T14:34:27;94725.72;;;5.82;85.39
46638;BME280;32365;46.938;7.390;2023-04-20T14:36:54;94735.59;;;6.04;83.18
46638;BME280;32365;46.938;7.390;2023-04-20T14:39:20;94723.94;;;6.38;83.10
46638;BME280;32365;46.938;7.390;2023-04-20T14:41:47;94726.94;;;6.66;83.07
46638;BME280;32365;46.938;7.390;2023-04-20T14:44:14;94731.25;;;6.84;80.17
46638;BME280;32365;46.938;7.390;2023-04-20T14:46:40;94738.94;;;6.72;80.64
46638;BME280;32365;46.938;7.390;2023-04-20T14:49:08;94722.59;;;6.66;81.54
46638;BME280;32365;46.938;7.390;2023-04-20T14:51:35;94731.97;;;6.60;82.89
46638;BME280;32365;46.938;7.390;2023-04-20T14:54:01;94733.38;;;6.26;83.04
46638;BME280;32365;46.938;7.390;2023-04-20T14:56:28;94728.50;;;6.67;81.95
46638;BME280;32365;46.938;7.390;2023-04-20T14:58:54;94736.31;;;6.60;82.39
46638;BME280;32365;46.938;7.390;2023-04-20T15:01:22;94738.72;;;6.43;82.49
46638;BME280;32365;46.938;7.390;2023-04-20T15:03:48;94738.09;;;6.29;83.65
46638;BME280;32365;46.938;7.390;2023-04-20T15:06:16;94738.50;;;6.26;84.08
46638;BME280;32365;46.938;7.390;2023-04-20T15:08:42;94740.38;;;6.19;84.71
46638;BME280;32365;46.938;7.390;2023-04-20T15:11:09;94738.88;;;6.11;85.89
46638;BME280;32365;46.938;7.390;2023-04-20T15:13:35;94742.00;;;5.94;85.64
46638;BME280;32365;46.938;7.390;2023-04-20T15:16:05;94740.31;;;6.07;84.59
46638;BME280;32365;46.938;7.390;2023-04-20T15:18:32;94738.97;;;6.04;84.97
46638;BME280;32365;46.938;7.390;2023-04-20T15:20:58;94740.38;;;6.19;84.83
46638;BME280;32365;46.938;7.390;2023-04-20T15:23:26;94743.16;;;6.17;85.14
46638;BME280;32365;46.938;7.390;2023-04-20T15:25:53;94749.44;;;6.03;nan
46638;BME280;32365;46.938;7.390;2023-04-20T15:28:19;94742.63;;;5.90;86.55
46638;BME280;32365;46.938;7.390;2023-04-20T15:30:46;94745.03;;;5.66;88.57
46638;BME280;32365;46.938;7.390;2023-04-20T15:33:12;94751.84;;;5.53;88.53
46638;BME280;32365;46.938;7.390;2023-04-20T15:35:39;94753.38;;;5.61;88.12
46638;BME280;32365;46.938;7.390;2023-04-20T15:38:05;94760.78;;;5.51;88.63
46638;BME280;32365;46.938;7.390;2023-04-20T15:40:33;94758.31;;;5.37;89.97
46638;BME280;32365;46.938;7.390;2023-04-20T15:43:00;94761.91;;;5.30;89.98
46638;BME280;32365;46.938;7.390;2023-04-20T15:45:27;94765.31;;;5.23;89.74
46638;BME280;32365;46.938;7.390;2023-04-20T15:47:55;94768.53;;;5.12;88.90
46638;BME280;32365;46.938;7.390;2023-04-20T15:50:22;94758.88;;;5.14;88.71
46638;BME280;32365;46.938;7.390;2023-04-20T15:52:48;94763.63;;;5.11;87.38
46638;BME280;32365;46.938;7.390;2023-04-20T15:55:17;94761.25;;;5.16;89.58
46638;BME280;32365;46.938;7.390;2023-04-20T15:57:44;94768.53;;;5.12;89.21
46638;BME280;32365;46.938;7.390;2023-04-20T16:00:12;94758.06;;;5.20;90.33
46638;BME280;32365;46.938;7.390;2023-04-20T16:02:38;94768.69;;;5.24;90.07
46638;BME280;32365;46.938;7.390;2023-04-20T16:05:05;94772.38;;;5.35;88.86
46638;BME280;32365;46.938;7.390;2023-04-20T16:07:33;94770.50;;;5.42;90.15
46638;BME280;32365;46.938;7.390;2023-04-20T16:09:59;94764.38;;;5.43;88.33
46638;BME280;32365;46.938;7.390;2023-04-20T16:12:27;94764.59;;;5.42;87.16
46638;BME280;32365;46.938;7.390;2023-04-20T16:14:54;94766.22;;;5.61;85.78
46638;BME280;32365;46.938;7.390;2023-04-20T16:17:21;94769.59;;;5.80;88.14
46638;BME280;32365;46.938;7.390;2023-04-20T16:19:47;94774.22;;;5.90;84.77
46638;BME280;32365;46.938;7.390;2023-04-20T16:22:14;94774.28;;;5.83;84.04
46638;BME280;32365;46.938;7.390;2023-04-20T16:24:40;94768.72;;;5.68;84.36
46638;BME280;32365;46.938;7.390;2023-04-20T16:27:07;94772.34;;;5.60;85.24
46638;BME280;32365;46.938;7.390;2023-04-20T16:29:33;94777.91;;;5.57;85.56
46638;BME280;32365;46.938;7.390;2023-04-20T16:32:01;94772.44;;;5.47;84.98
46638;BME280;32365;46.938;7.390;2023-04-20T16:34:28;94772.06;;;5.68;84.72
46638;BME280;32365;46.938;7.390;2023-04-20T16:36:55;94771.25;;;5.75;84.29
46638;BME280;32365;46.938;7.390;2023-04-20T16:39:22;94777.78;;;5.70;85.83
46638;BME280;32365;46.938;7.390;2023-04-20T16:41:49;94778.88;;;5.56;86.24
46638;BME280;32365;46.938;7.390;2023-04-20T16:44:16;94780.88;;;5.54;84.79
46638;BME280;32365;46.938;7.390;2023-04-20T16:46:42;94781.97;;;5.65;82.76
46638;BME280;32365;46.938;7.390;2023-04-20T16:49:10;94774.84;;;5.67;83.33
46638;BME280;32365;46.938;7.390;2023-04-20T16:51:36;94773.81;;;5.49;84.04
46638;BME280;32365;46.938;7.390;2023-04-20T16:54:03;94775.22;;;5.70;82.22
46638;BME280;32365;46.938;7.390;2023-04-20T16:56:30;94775.50;;;5.62;82.41
46638;BME280;32365;46.938;7.390;2023-04-20T16:58:56;94772.63;;;5.52;84.06
46638;BME280;32365;46.938;7.390;2023-04-20T17:01:23;94765.22;;;5.62;82.27
46638;BME280;32365;46.938;7.390;2023-04-20T17:03:50;94762.28;;;5.59;84.30
46638;BME280;32365;46.938;7.390;2023-04-20T17:06:18;94756.56;;;5.57;83.11
46638;BME280;32365;46.938;7.390;2023-04-20T17:08:44;94759.16;;;5.57;84.52
46638;BME280;32365;46.938;7.390;2023-04-20T17:11:11;94763.00;;;5.66;87.29
46638;BME280;32365;46.938;7.390;2023-04-20T17:13:37;94757.47;;;5.44;86.65
46638;BME280;32365;46.938;7.390;2023-04-20T17:16:04;94762.28;;;5.33;88.21
46638;BME280;32365;46.938;7.390;2023-04-20T17:18:30;94760.53;;;5.34;88.36
46638;BME280;32365;46.938;7.390;2023-04-20T17:21:00;94766.28;;;5.54;89.60
46638;BME280;32365;46.938;7.390;2023-04-20T17:23:28;94756.06;;;5.66;89.03
46638;BME280;32365;46.938;7.390;2023-04-20T17:25:54;94756.19;;;5.78;88.53
46638;BME280;32365;46.938;7.390;2023-04-20T17:28:20;94753.66;;;5.53;90.39
46638;BME280;32365;46.938;7.390;2023-04-20T17:30:47;94758.16;;;5.58;90.28
46638;BME280;32365;46.938;7.390;2023-04-20T17:33:13;94759.44;;;5.67;90.08
46638;BME280;32365;46.938;7.390;2023-04-20T17:35:40;94761.66;;;5.63;91.02
46638;BME280;32365;46.938;7.390;2023-04-20T17:38:07;94765.28;;;5.55;91.96
46638;BME280;32365;46.938;7.390;2023-04-20T17:40:35;94766.88;;;5.24;92.99
46638;BME280;32365;46.938;7.390;2023-04-20T17:43:01;94772.00;;;5.24;92.36
46638;BME280;32365;46.938;7.390;2023-04-20T17:45:28;94775.25;;;5.13;92.52
46638;BME280;32365;46.938;7.390;2023-04-20T17:47:54;94767.94;;;5.17;92.76
46638;BME280;32365;46.938;7.390;2023-04-20T17:50:21;94769.84;;;5.28;93.43
46638;BME280;32365;46.938;7.390;2023-04-20T17:52:47;94772.38;;;5.35;92.82
46638;BME280;32365;46.938;7.390;2023-04-20T17:55:16;94773.53;;;5.07;92.19
46638;BME280;32365;46.938;7.390;2023-04-20T17:57:44;94770.34;;;5.12;93.38
46638;BME280;32365;46.938;7.390;2023-04-20T18:00:11;94763.38;;;5.19;93.73
46638;BME280;32365;46.938;7.390;2023-04-20T18:02:38;94771.50;;;5.16;92.68
46638;BME280;32365;46.938;7.390;2023-04-20T18:05:06;94774.13;;;5.09;92.32
46638;BME280;32365;46.938;7.390;2023-04-20T18:07:32;94771.63;;;4.96;92.83
46638;BME280;32365;46.938;7.390;2023-04-20T18:09:59;94778.97;;;4.92;93.67
46638;BME280;32365;46.938;7.390;2023-04-20T18:12:25;94774.00;;;4.90;93.42
46638;BME280;32365;46.938;7.390;2023-04-20T18:14:53;94776.59;;;4.90;94.66
46638;BME280;32365;46.938;7.390;2023-04-20T18:17:20;94776.44;;;4.85;94.89
46638;BME280;32365;46.938;7.390;2023-04-20T18:19:46;94780.13;;;4.89;94.90
46638;BME280;32365;46.938;7.390;2023-04-20T18:22:13;94781.72;;;4.90;95.14
46638;BME280;32365;46.938;7.390;2023-04-20T18:24:40;94781.38;;;4.80;94.86
46638;BME280;32365;46.938;7.390;2023-04-20T18:27:07;94783.13;;;4.86;94.68
46638;BME280;32365;46.938;7.390;2023-04-20T18:29:33;94787.72;;;4.77;94.08
46638;BME280;32365;46.938;7.390;2023-04-20T18:32:02;94779.41;;;4.82;94.85
46638;BME280;32365;46.938;7.390;2023-04-20T18:34:28;94784.09;;;4.92;93.96
46638;BME280;32365;46.938;7.390;2023-04-20T18:36:56;94775.66;;;4.78;94.30
46638;BME280;32365;46.938;7.390;2023-04-20T18:39:23;94782.22;;;4.74;95.19
46638;BME280;32365;46.938;7.390;2023-04-20T18:41:49;94779.28;;;4.63;94.26
46638;BME280;32365;46.938;7.390;2023-04-20T18:44:16;94779.28;;;4.63;95.29
46638;BME280;32365;46.938;7.390;2023-04-20T18:46:42;94776.13;;;4.68;94.91
46638;BME280;32365;46.938;7.390;2023-04-20T18:49:10;94776.16;;;4.61;95.51
46638;BME280;32365;46.938;7.390;2023-04-20T18:51:36;94779.13;;;4.58;95.76
46638;BME280;32365;46.938;7.390;2023-04-20T18:54:03;94774.97;;;4.57;95.30
46638;BME280;32365;46.938;7.390;2023-04-20T18:56:30;94779.84;;;4.72;95.54
46638;BME280;32365;46.938;7.390;2023-04-20T18:58:57;94777.53;;;4.57;95.88
46638;BME280;32365;46.938;7.390;2023-04-20T19:01:25;94776.38;;;4.53;96.19
46638;BME280;32365;46.938;7.390;2023-04-20T19:03:52;94776.97;;;4.55;97.31
46638;BME280;32365;46.938;7.390;2023-04-20T19:06:20;94773.75;;;4.67;97.18
46638;BME280;32365;46.938;7.390;2023-04-20T19:08:48;94777.94;;;4.54;98.25
46638;BME280;32365;46.938;7.390;2023-04-20T19:11:15;94770.84;;;4.56;97.92
46638;BME280;32365;46.938;7.390;2023-04-20T19:13:42;94774.41;;;4.49;97.92
46638;BME280;32365;46.938;7.390;2023-04-20T19:16:09;94779.16;;;4.52;97.75
46638;BME280;32365;46.938;7.390;2023-04-20T19:18:36;94772.44;;;4.51;96.93
46638;BME280;32365;46.938;7.390;2023-04-20T19:21:02;94778.56;;;4.50;95.73
46638;BME280;32365;46.938;7.390;2023-04-20T19:23:30;94778.94;;;4.53;95.77
46638;BME280;32365;46.938;7.390;2023-04-20T19:25:57;94773.50;;;4.36;96.38
46638;BME280;32365;46.938;7.390;2023-04-20T19:28:23;94777.06;;;4.28;96.82
46638;BME280;32365;46.938;7.390;2023-04-20T19:30:50;94774.34;;;4.16;97.20
46638;BME280;32365;46.938;7.390;2023-04-20T19:33:16;94773.34;;;4.24;97.31
46638;BME280;32365;46.938;7.390;2023-04-20T19:35:43;94772.53;;;4.24;97.70
46638;BME280;32365;46.938;7.390;2023-04-20T19:38:14;94780.41;;;4.36;97.49
46638;BME280;32365;46.938;7.390;2023-04-20T19:40:42;94783.16;;;4.34;97.13
46638;BME280;32365;46.938;7.390;2023-04-20T19:43:09;94781.66;;;4.20;97.46
46638;BME280;32365;46.938;7.390;2023-04-20T19:45:36;94785.97;;;4.19;98.11
46638;BME280;32365;46.938;7.390;2023-04-20T19:48:02;94778.25;;;4.26;98.52
46638;BME280;32365;46.938;7.390;2023-04-20T19:50:29;94782.19;;;4.28;98.57
46638;BME280;32365;46.938;7.390;2023-04-20T19:52:55;94778.63;;;4.29;97.44
46638;BME280;32365;46.938;7.390;2023-04-20T19:55:22;94793.41;;;4.27;97.43
46638;BME280;32365;46.938;7.390;2023-04-20T19:57:50;94784.38;;;4.25;98.04
46638;BME280;32365;46.938;7.390;2023-04-20T20:00:16;94784.75;;;4.28;97.99
46638;BME280;32365;46.938;7.390;2023-04-20T20:02:43;94786.13;;;4.38;98.65
46638;BME280;32365;46.938;7.390;2023-04-20T20:05:09;94780.78;;;4.39;98.10
46638;BME280;32365;46.938;7.390;2023-04-20T20:07:36;94783.06;;;4.54;97.60
